Impacts TAF Board INFO
FOR SITUATIONAL AWARENESS. NOT TO BE USED FOR FLIGHT PLANNING PURPOSES.
IDs:

KGPT - Gulfport-Biloxi Intl, MS, US

Issued at 1123 UTC 20 May 2018
Updated at 1529 UTC 20 May 2018
Potential Impact None Slight Moderate High
Time1453Z 20/16Z 20/17Z 20/18Z 20/19Z 20/20Z 20/21Z 20/22Z 20/23Z 21/00Z 21/01Z 21/02Z 21/03Z 21/04Z>>
Type OBS PRVL PRVL PRVL PRVL PRVL PRVL PRVL PRVL PRVL PRVL PRVL PRVL PRVL
VIS 9 >6 >6 >6 >6 >6 >6 >6 >6 >6 >6 >6 >6 >6
CIG -- -- -- -- -- -- -- -- -- -- -- -- -- --
Cover FEW SKC SKC SCT SCT SCT SCT SCT SCT SCT SCT SCT SCT SCT
FltCat VFR VFR VFR VFR VFR VFR VFR VFR VFR VFR VFR VFR VFR VFR
WX HZ -- -- VCTS VCTS VCTS VCTS VCTS VCTS VCTS VCTS VCTS VCTS VCTS
WDir 140 VRB VRB 140 140 140 140 140 140 140 140 140 140 140
WSpd 5 0 0 7 7 7 7 7 7 7 7 7 7 7
WGst -- -- -- -- -- -- -- -- -- -- -- -- -- --

Raw TAF
KGPT 201123Z 2012/2112 00000KT P6SM SKC
  FM201800 14007KT P6SM VCTS SCT020CB SCT250
  FM211000 09004KT P6SM SCT250


Raw METAR
KGPT 201453Z 14005KT 9SM HZ FEW022 FEW029 30/22 A3008 RMK AO2 SLP184 T03000217 53010
KGPT 201353Z 00000KT 9SM HZ FEW022 FEW029 29/22 A3007 RMK AO2 SLP181 T02890222
KGPT 201253Z 36003KT 7SM HZ CLR 27/22 A3006 RMK AO2 SLP177 T02670222

METAR Board
Radar Display
Forecast Discussion

FOR SITUATIONAL AWARENESS. NOT TO BE USED FOR FLIGHT PLANNING PURPOSES.